<?xml version="1.0" encoding="utf-8"?>
<gpx xmlns:xsi="http://www.w3.org/2001/XMLSchema-instance" xmlns:xsd="http://www.w3.org/2001/XMLSchema" version="1.1" creator="Shapelink.com" xmlns="http://www.topografix.com/GPX/1/1" xmlns:gpxtpx="http://www.garmin.com/xmlschemas/TrackPointExtension/v1">
  <metadata>
    <name>Gåing 5.62 km, 2012-09-09</name>
    <desc></desc>
    <author><name>Mikael Blom</name></author> 
    <time>2012-09-09T18:45:26Z</time>
  </metadata>
  <trk>
    <name>Gåing 5.62 km, 2012-09-09</name>
    <trkseg>
      <trkpt lat="59.9788274" lon="17.7399346">
        <ele>27.0543</ele>
        <time>2012-09-09T18:45:26Z</time>
      </trkpt>
      <trkpt lat="59.9788594" lon="17.7397371">
        <ele>41.9547</ele>
        <time>2012-09-09T18:45:32Z</time>
      </trkpt>
      <trkpt lat="59.9788842" lon="17.7396807">
        <ele>49.1646</ele>
        <time>2012-09-09T18:45:35Z</time>
      </trkpt>
      <trkpt lat="59.9790158" lon="17.7394953">
        <ele>62.6229</ele>
        <time>2012-09-09T18:45:42Z</time>
      </trkpt>
      <trkpt lat="59.9790397" lon="17.7393792">
        <ele>65.9877</ele>
        <time>2012-09-09T18:45:46Z</time>
      </trkpt>
      <trkpt lat="59.9790216" lon="17.739292">
        <ele>62.6229</ele>
        <time>2012-09-09T18:45:50Z</time>
      </trkpt>
      <trkpt lat="59.9789598" lon="17.7392771">
        <ele>55.4131</ele>
        <time>2012-09-09T18:45:54Z</time>
      </trkpt>
      <trkpt lat="59.978754" lon="17.7393383">
        <ele>37.6287</ele>
        <time>2012-09-09T18:46:00Z</time>
      </trkpt>
      <trkpt lat="59.9786035" lon="17.7394829">
        <ele>22.7283</ele>
        <time>2012-09-09T18:46:05Z</time>
      </trkpt>
      <trkpt lat="59.9785432" lon="17.739508">
        <ele>20.8057</ele>
        <time>2012-09-09T18:46:09Z</time>
      </trkpt>
      <trkpt lat="59.9784557" lon="17.7394739">
        <ele>22.2476</ele>
        <time>2012-09-09T18:46:15Z</time>
      </trkpt>
      <trkpt lat="59.9783534" lon="17.739415">
        <ele>24.1703</ele>
        <time>2012-09-09T18:46:21Z</time>
      </trkpt>
      <trkpt lat="59.9783004" lon="17.7394161">
        <ele>24.651</ele>
        <time>2012-09-09T18:46:26Z</time>
      </trkpt>
      <trkpt lat="59.9782398" lon="17.7394009">
        <ele>25.1317</ele>
        <time>2012-09-09T18:46:31Z</time>
      </trkpt>
      <trkpt lat="59.9781683" lon="17.7393327">
        <ele>28.4962</ele>
        <time>2012-09-09T18:46:36Z</time>
      </trkpt>
      <trkpt lat="59.9780715" lon="17.7393528">
        <ele>27.5349</ele>
        <time>2012-09-09T18:46:42Z</time>
      </trkpt>
      <trkpt lat="59.9780164" lon="17.7393213">
        <ele>27.5349</ele>
        <time>2012-09-09T18:46:46Z</time>
      </trkpt>
      <trkpt lat="59.9779037" lon="17.7392143">
        <ele>27.0543</ele>
        <time>2012-09-09T18:46:54Z</time>
      </trkpt>
      <trkpt lat="59.9778099" lon="17.7391493">
        <ele>25.1317</ele>
        <time>2012-09-09T18:47:01Z</time>
      </trkpt>
      <trkpt lat="59.9777264" lon="17.7391087">
        <ele>24.1703</ele>
        <time>2012-09-09T18:47:07Z</time>
      </trkpt>
      <trkpt lat="59.9776077" lon="17.739055">
        <ele>29.9381</ele>
        <time>2012-09-09T18:47:14Z</time>
      </trkpt>
      <trkpt lat="59.977508" lon="17.7390581">
        <ele>30.4188</ele>
        <time>2012-09-09T18:47:20Z</time>
      </trkpt>
      <trkpt lat="59.977427" lon="17.7390496">
        <ele>30.8995</ele>
        <time>2012-09-09T18:47:26Z</time>
      </trkpt>
      <trkpt lat="59.9773831" lon="17.7390715">
        <ele>28.9769</ele>
        <time>2012-09-09T18:47:29Z</time>
      </trkpt>
      <trkpt lat="59.9772977" lon="17.7391309">
        <ele>27.0543</ele>
        <time>2012-09-09T18:47:35Z</time>
      </trkpt>
      <trkpt lat="59.9772857" lon="17.7391259">
        <ele>27.5349</ele>
        <time>2012-09-09T18:47:36Z</time>
      </trkpt>
      <trkpt lat="59.977209" lon="17.739172">
        <ele>25.6123</ele>
        <time>2012-09-09T18:47:42Z</time>
      </trkpt>
      <trkpt lat="59.9771965" lon="17.739192">
        <ele>25.1317</ele>
        <time>2012-09-09T18:47:43Z</time>
      </trkpt>
      <trkpt lat="59.9771742" lon="17.7392177">
        <ele>24.651</ele>
        <time>2012-09-09T18:47:45Z</time>
      </trkpt>
      <trkpt lat="59.9771163" lon="17.7392563">
        <ele>25.6123</ele>
        <time>2012-09-09T18:47:49Z</time>
      </trkpt>
      <trkpt lat="59.9770635" lon="17.7392982">
        <ele>25.1317</ele>
        <time>2012-09-09T18:47:53Z</time>
      </trkpt>
      <trkpt lat="59.9769661" lon="17.7393599">
        <ele>24.651</ele>
        <time>2012-09-09T18:48:00Z</time>
      </trkpt>
      <trkpt lat="59.976893" lon="17.7393531">
        <ele>28.0155</ele>
        <time>2012-09-09T18:48:06Z</time>
      </trkpt>
      <trkpt lat="59.9768571" lon="17.7393583">
        <ele>29.4575</ele>
        <time>2012-09-09T18:48:09Z</time>
      </trkpt>
      <trkpt lat="59.976776" lon="17.7393898">
        <ele>29.4575</ele>
        <time>2012-09-09T18:48:14Z</time>
      </trkpt>
      <trkpt lat="59.9767452" lon="17.7393992">
        <ele>29.9381</ele>
        <time>2012-09-09T18:48:16Z</time>
      </trkpt>
      <trkpt lat="59.9766387" lon="17.739378">
        <ele>33.7834</ele>
        <time>2012-09-09T18:48:23Z</time>
      </trkpt>
      <trkpt lat="59.9765496" lon="17.7394805">
        <ele>33.3029</ele>
        <time>2012-09-09T18:48:28Z</time>
      </trkpt>
      <trkpt lat="59.9764724" lon="17.7395496">
        <ele>33.7834</ele>
        <time>2012-09-09T18:48:33Z</time>
      </trkpt>
      <trkpt lat="59.9764236" lon="17.7396418">
        <ele>32.3416</ele>
        <time>2012-09-09T18:48:37Z</time>
      </trkpt>
      <trkpt lat="59.976338" lon="17.7397692">
        <ele>34.2642</ele>
        <time>2012-09-09T18:48:45Z</time>
      </trkpt>
      <trkpt lat="59.9762985" lon="17.739805">
        <ele>35.2255</ele>
        <time>2012-09-09T18:48:48Z</time>
      </trkpt>
      <trkpt lat="59.9762622" lon="17.7398589">
        <ele>34.7449</ele>
        <time>2012-09-09T18:48:51Z</time>
      </trkpt>
      <trkpt lat="59.9762207" lon="17.7399371">
        <ele>32.8223</ele>
        <time>2012-09-09T18:48:55Z</time>
      </trkpt>
      <trkpt lat="59.976162" lon="17.7401741">
        <ele>31.3801</ele>
        <time>2012-09-09T18:49:03Z</time>
      </trkpt>
      <trkpt lat="59.9760996" lon="17.7404106">
        <ele>28.9769</ele>
        <time>2012-09-09T18:49:11Z</time>
      </trkpt>
      <trkpt lat="59.97602" lon="17.7406728">
        <ele>26.0929</ele>
        <time>2012-09-09T18:49:21Z</time>
      </trkpt>
      <trkpt lat="59.9759745" lon="17.7408172">
        <ele>26.0929</ele>
        <time>2012-09-09T18:49:27Z</time>
      </trkpt>
      <trkpt lat="59.9759286" lon="17.7409872">
        <ele>27.0543</ele>
        <time>2012-09-09T18:49:33Z</time>
      </trkpt>
      <trkpt lat="59.9758931" lon="17.7411617">
        <ele>28.0155</ele>
        <time>2012-09-09T18:49:40Z</time>
      </trkpt>
      <trkpt lat="59.9758466" lon="17.7413356">
        <ele>29.4575</ele>
        <time>2012-09-09T18:49:47Z</time>
      </trkpt>
      <trkpt lat="59.9758015" lon="17.741503">
        <ele>31.3801</ele>
        <time>2012-09-09T18:49:54Z</time>
      </trkpt>
      <trkpt lat="59.9757431" lon="17.7417899">
        <ele>31.8607</ele>
        <time>2012-09-09T18:50:04Z</time>
      </trkpt>
      <trkpt lat="59.9756882" lon="17.7420538">
        <ele>29.4575</ele>
        <time>2012-09-09T18:50:13Z</time>
      </trkpt>
      <trkpt lat="59.9756533" lon="17.7422535">
        <ele>28.4962</ele>
        <time>2012-09-09T18:50:20Z</time>
      </trkpt>
      <trkpt lat="59.9756281" lon="17.742365">
        <ele>28.4962</ele>
        <time>2012-09-09T18:50:24Z</time>
      </trkpt>
      <trkpt lat="59.9755844" lon="17.7425008">
        <ele>29.4575</ele>
        <time>2012-09-09T18:50:30Z</time>
      </trkpt>
      <trkpt lat="59.9755729" lon="17.742551">
        <ele>28.9769</ele>
        <time>2012-09-09T18:50:32Z</time>
      </trkpt>
      <trkpt lat="59.9755208" lon="17.742754">
        <ele>27.0543</ele>
        <time>2012-09-09T18:50:40Z</time>
      </trkpt>
      <trkpt lat="59.9754676" lon="17.7429705">
        <ele>24.1703</ele>
        <time>2012-09-09T18:50:47Z</time>
      </trkpt>
      <trkpt lat="59.9754391" lon="17.7431176">
        <ele>22.2476</ele>
        <time>2012-09-09T18:50:52Z</time>
      </trkpt>
      <trkpt lat="59.9754065" lon="17.7432885">
        <ele>21.2864</ele>
        <time>2012-09-09T18:50:58Z</time>
      </trkpt>
      <trkpt lat="59.9753609" lon="17.7434454">
        <ele>21.767</ele>
        <time>2012-09-09T18:51:05Z</time>
      </trkpt>
      <trkpt lat="59.9753259" lon="17.7436088">
        <ele>20.8057</ele>
        <time>2012-09-09T18:51:10Z</time>
      </trkpt>
      <trkpt lat="59.9752659" lon="17.7438896">
        <ele>18.8831</ele>
        <time>2012-09-09T18:51:19Z</time>
      </trkpt>
      <trkpt lat="59.9752266" lon="17.7440691">
        <ele>17.4412</ele>
        <time>2012-09-09T18:51:25Z</time>
      </trkpt>
      <trkpt lat="59.9751761" lon="17.7443157">
        <ele>15.0377</ele>
        <time>2012-09-09T18:51:33Z</time>
      </trkpt>
      <trkpt lat="59.9751389" lon="17.7444685">
        <ele>14.0764</ele>
        <time>2012-09-09T18:51:39Z</time>
      </trkpt>
      <trkpt lat="59.9750939" lon="17.7446297">
        <ele>13.5958</ele>
        <time>2012-09-09T18:51:45Z</time>
      </trkpt>
      <trkpt lat="59.9750427" lon="17.7448433">
        <ele>11.1925</ele>
        <time>2012-09-09T18:51:53Z</time>
      </trkpt>
      <trkpt lat="59.9749805" lon="17.745041">
        <ele>11.1925</ele>
        <time>2012-09-09T18:52:01Z</time>
      </trkpt>
      <trkpt lat="59.9749189" lon="17.7452191">
        <ele>11.6732</ele>
        <time>2012-09-09T18:52:08Z</time>
      </trkpt>
      <trkpt lat="59.9748563" lon="17.74539">
        <ele>13.5958</ele>
        <time>2012-09-09T18:52:16Z</time>
      </trkpt>
      <trkpt lat="59.9748091" lon="17.7455583">
        <ele>14.557</ele>
        <time>2012-09-09T18:52:23Z</time>
      </trkpt>
      <trkpt lat="59.9747415" lon="17.7456942">
        <ele>14.0764</ele>
        <time>2012-09-09T18:52:30Z</time>
      </trkpt>
      <trkpt lat="59.974678" lon="17.7458186">
        <ele>15.5184</ele>
        <time>2012-09-09T18:52:36Z</time>
      </trkpt>
      <trkpt lat="59.9746086" lon="17.7459686">
        <ele>17.9218</ele>
        <time>2012-09-09T18:52:42Z</time>
      </trkpt>
      <trkpt lat="59.9745428" lon="17.7461007">
        <ele>17.4412</ele>
        <time>2012-09-09T18:52:49Z</time>
      </trkpt>
      <trkpt lat="59.9744696" lon="17.7461723">
        <ele>15.5184</ele>
        <time>2012-09-09T18:52:55Z</time>
      </trkpt>
      <trkpt lat="59.9743889" lon="17.74626">
        <ele>13.5958</ele>
        <time>2012-09-09T18:53:02Z</time>
      </trkpt>
      <trkpt lat="59.974296" lon="17.7463763">
        <ele>13.1151</ele>
        <time>2012-09-09T18:53:09Z</time>
      </trkpt>
      <trkpt lat="59.9741769" lon="17.7464987">
        <ele>12.6344</ele>
        <time>2012-09-09T18:53:18Z</time>
      </trkpt>
      <trkpt lat="59.9740819" lon="17.7466142">
        <ele>11.6732</ele>
        <time>2012-09-09T18:53:25Z</time>
      </trkpt>
      <trkpt lat="59.9739581" lon="17.746758">
        <ele>10.7118</ele>
        <time>2012-09-09T18:53:35Z</time>
      </trkpt>
      <trkpt lat="59.9738346" lon="17.7469204">
        <ele>7.82788</ele>
        <time>2012-09-09T18:53:46Z</time>
      </trkpt>
      <trkpt lat="59.9737499" lon="17.7470249">
        <ele>8.78918</ele>
        <time>2012-09-09T18:53:52Z</time>
      </trkpt>
      <trkpt lat="59.9736784" lon="17.7470911">
        <ele>8.78918</ele>
        <time>2012-09-09T18:53:57Z</time>
      </trkpt>
      <trkpt lat="59.9735409" lon="17.7472499">
        <ele>10.2312</ele>
        <time>2012-09-09T18:54:07Z</time>
      </trkpt>
      <trkpt lat="59.9733999" lon="17.7474103">
        <ele>11.6732</ele>
        <time>2012-09-09T18:54:17Z</time>
      </trkpt>
      <trkpt lat="59.9732877" lon="17.74752">
        <ele>12.1538</ele>
        <time>2012-09-09T18:54:25Z</time>
      </trkpt>
      <trkpt lat="59.9731582" lon="17.7477077">
        <ele>14.557</ele>
        <time>2012-09-09T18:54:34Z</time>
      </trkpt>
      <trkpt lat="59.9731048" lon="17.7477658">
        <ele>13.5958</ele>
        <time>2012-09-09T18:54:38Z</time>
      </trkpt>
      <trkpt lat="59.9729945" lon="17.7478761">
        <ele>11.6732</ele>
        <time>2012-09-09T18:54:46Z</time>
      </trkpt>
      <trkpt lat="59.9729282" lon="17.7479749">
        <ele>8.78918</ele>
        <time>2012-09-09T18:54:53Z</time>
      </trkpt>
      <trkpt lat="59.9728297" lon="17.7481632">
        <ele>6.38586</ele>
        <time>2012-09-09T18:55:04Z</time>
      </trkpt>
      <trkpt lat="59.972735" lon="17.7483831">
        <ele>6.38586</ele>
        <time>2012-09-09T18:55:14Z</time>
      </trkpt>
      <trkpt lat="59.9726604" lon="17.7485361">
        <ele>6.38586</ele>
        <time>2012-09-09T18:55:22Z</time>
      </trkpt>
      <trkpt lat="59.9725986" lon="17.7486749">
        <ele>4.94385</ele>
        <time>2012-09-09T18:55:29Z</time>
      </trkpt>
      <trkpt lat="59.9725945" lon="17.7486923">
        <ele>4.46326</ele>
        <time>2012-09-09T18:55:30Z</time>
      </trkpt>
      <trkpt lat="59.9725081" lon="17.7488769">
        <ele>3.02124</ele>
        <time>2012-09-09T18:55:39Z</time>
      </trkpt>
      <trkpt lat="59.97242" lon="17.7490435">
        <ele>0.618042</ele>
        <time>2012-09-09T18:55:47Z</time>
      </trkpt>
      <trkpt lat="59.9723418" lon="17.7492036">
        <ele>0</ele>
        <time>2012-09-09T18:55:55Z</time>
      </trkpt>
      <trkpt lat="59.9723043" lon="17.7492896">
        <ele>0</ele>
        <time>2012-09-09T18:55:59Z</time>
      </trkpt>
      <trkpt lat="59.9722687" lon="17.749386">
        <ele>0</ele>
        <time>2012-09-09T18:56:03Z</time>
      </trkpt>
      <trkpt lat="59.9722465" lon="17.7494281">
        <ele>0</ele>
        <time>2012-09-09T18:56:05Z</time>
      </trkpt>
      <trkpt lat="59.9722118" lon="17.7495129">
        <ele>0</ele>
        <time>2012-09-09T18:56:08Z</time>
      </trkpt>
      <trkpt lat="59.9721274" lon="17.7497208">
        <ele>0</ele>
        <time>2012-09-09T18:56:16Z</time>
      </trkpt>
      <trkpt lat="59.9720388" lon="17.7499148">
        <ele>0</ele>
        <time>2012-09-09T18:56:24Z</time>
      </trkpt>
      <trkpt lat="59.9719552" lon="17.7501196">
        <ele>2.06006</ele>
        <time>2012-09-09T18:56:32Z</time>
      </trkpt>
      <trkpt lat="59.9718739" lon="17.7502922">
        <ele>3.50195</ele>
        <time>2012-09-09T18:56:39Z</time>
      </trkpt>
      <trkpt lat="59.9717897" lon="17.7504515">
        <ele>4.94385</ele>
        <time>2012-09-09T18:56:46Z</time>
      </trkpt>
      <trkpt lat="59.9716765" lon="17.7506889">
        <ele>11.1925</ele>
        <time>2012-09-09T18:56:54Z</time>
      </trkpt>
      <trkpt lat="59.9715798" lon="17.7508521">
        <ele>17.4412</ele>
        <time>2012-09-09T18:57:00Z</time>
      </trkpt>
      <trkpt lat="59.971455" lon="17.7510483">
        <ele>20.8057</ele>
        <time>2012-09-09T18:57:09Z</time>
      </trkpt>
      <trkpt lat="59.971333" lon="17.7512191">
        <ele>24.651</ele>
        <time>2012-09-09T18:57:17Z</time>
      </trkpt>
      <trkpt lat="59.9712162" lon="17.751383">
        <ele>26.5736</ele>
        <time>2012-09-09T18:57:25Z</time>
      </trkpt>
      <trkpt lat="59.9710829" lon="17.7515378">
        <ele>28.9769</ele>
        <time>2012-09-09T18:57:34Z</time>
      </trkpt>
      <trkpt lat="59.9709691" lon="17.7516736">
        <ele>26.5736</ele>
        <time>2012-09-09T18:57:43Z</time>
      </trkpt>
      <trkpt lat="59.9708637" lon="17.751802">
        <ele>24.1703</ele>
        <time>2012-09-09T18:57:52Z</time>
      </trkpt>
      <trkpt lat="59.9707799" lon="17.751932">
        <ele>23.6896</ele>
        <time>2012-09-09T18:57:59Z</time>
      </trkpt>
      <trkpt lat="59.970709" lon="17.7520481">
        <ele>23.6896</ele>
        <time>2012-09-09T18:58:05Z</time>
      </trkpt>
      <trkpt lat="59.9706334" lon="17.7521736">
        <ele>23.209</ele>
        <time>2012-09-09T18:58:12Z</time>
      </trkpt>
      <trkpt lat="59.9705878" lon="17.7522829">
        <ele>22.7283</ele>
        <time>2012-09-09T18:58:18Z</time>
      </trkpt>
      <trkpt lat="59.9705258" lon="17.7524199">
        <ele>22.2476</ele>
        <time>2012-09-09T18:58:25Z</time>
      </trkpt>
      <trkpt lat="59.9704568" lon="17.7525864">
        <ele>21.767</ele>
        <time>2012-09-09T18:58:32Z</time>
      </trkpt>
      <trkpt lat="59.9703608" lon="17.7528391">
        <ele>24.651</ele>
        <time>2012-09-09T18:58:41Z</time>
      </trkpt>
      <trkpt lat="59.9702988" lon="17.7530397">
        <ele>24.651</ele>
        <time>2012-09-09T18:58:49Z</time>
      </trkpt>
      <trkpt lat="59.9702621" lon="17.7531814">
        <ele>25.1317</ele>
        <time>2012-09-09T18:58:54Z</time>
      </trkpt>
      <trkpt lat="59.9702279" lon="17.7532767">
        <ele>26.0929</ele>
        <time>2012-09-09T18:58:58Z</time>
      </trkpt>
      <trkpt lat="59.9702072" lon="17.7534034">
        <ele>27.5349</ele>
        <time>2012-09-09T18:59:03Z</time>
      </trkpt>
      <trkpt lat="59.9701164" lon="17.7536072">
        <ele>27.0543</ele>
        <time>2012-09-09T18:59:12Z</time>
      </trkpt>
      <trkpt lat="59.970023" lon="17.7538147">
        <ele>26.0929</ele>
        <time>2012-09-09T18:59:22Z</time>
      </trkpt>
      <trkpt lat="59.9699009" lon="17.7540506">
        <ele>24.651</ele>
        <time>2012-09-09T18:59:34Z</time>
      </trkpt>
      <trkpt lat="59.9697914" lon="17.7542568">
        <ele>23.209</ele>
        <time>2012-09-09T18:59:45Z</time>
      </trkpt>
      <trkpt lat="59.9696787" lon="17.7544776">
        <ele>22.7283</ele>
        <time>2012-09-09T18:59:56Z</time>
      </trkpt>
      <trkpt lat="59.9695745" lon="17.7546905">
        <ele>21.767</ele>
        <time>2012-09-09T19:00:06Z</time>
      </trkpt>
      <trkpt lat="59.9694402" lon="17.7549669">
        <ele>21.767</ele>
        <time>2012-09-09T19:00:19Z</time>
      </trkpt>
      <trkpt lat="59.9693473" lon="17.7551525">
        <ele>22.2476</ele>
        <time>2012-09-09T19:00:28Z</time>
      </trkpt>
      <trkpt lat="59.9692664" lon="17.7553469">
        <ele>22.7283</ele>
        <time>2012-09-09T19:00:36Z</time>
      </trkpt>
      <trkpt lat="59.9691809" lon="17.7555424">
        <ele>23.6896</ele>
        <time>2012-09-09T19:00:44Z</time>
      </trkpt>
      <trkpt lat="59.9691124" lon="17.755709">
        <ele>24.1703</ele>
        <time>2012-09-09T19:00:51Z</time>
      </trkpt>
      <trkpt lat="59.9690266" lon="17.7558611">
        <ele>24.1703</ele>
        <time>2012-09-09T19:00:59Z</time>
      </trkpt>
      <trkpt lat="59.9689545" lon="17.7560089">
        <ele>23.6896</ele>
        <time>2012-09-09T19:01:06Z</time>
      </trkpt>
      <trkpt lat="59.9688324" lon="17.7562647">
        <ele>25.6123</ele>
        <time>2012-09-09T19:01:17Z</time>
      </trkpt>
      <trkpt lat="59.9687225" lon="17.7564476">
        <ele>25.6123</ele>
        <time>2012-09-09T19:01:26Z</time>
      </trkpt>
      <trkpt lat="59.9686178" lon="17.756607">
        <ele>25.6123</ele>
        <time>2012-09-09T19:01:34Z</time>
      </trkpt>
      <trkpt lat="59.9684943" lon="17.7567983">
        <ele>24.651</ele>
        <time>2012-09-09T19:01:44Z</time>
      </trkpt>
      <trkpt lat="59.9683726" lon="17.7569728">
        <ele>25.1317</ele>
        <time>2012-09-09T19:01:53Z</time>
      </trkpt>
      <trkpt lat="59.9682581" lon="17.7571527">
        <ele>25.6123</ele>
        <time>2012-09-09T19:02:02Z</time>
      </trkpt>
      <trkpt lat="59.9681375" lon="17.7573309">
        <ele>25.1317</ele>
        <time>2012-09-09T19:02:12Z</time>
      </trkpt>
      <trkpt lat="59.9680354" lon="17.757472">
        <ele>24.1703</ele>
        <time>2012-09-09T19:02:20Z</time>
      </trkpt>
      <trkpt lat="59.9679434" lon="17.7576039">
        <ele>27.5349</ele>
        <time>2012-09-09T19:02:27Z</time>
      </trkpt>
      <trkpt lat="59.9678911" lon="17.7576889">
        <ele>30.4188</ele>
        <time>2012-09-09T19:02:31Z</time>
      </trkpt>
      <trkpt lat="59.9678758" lon="17.7577131">
        <ele>30.4188</ele>
        <time>2012-09-09T19:02:32Z</time>
      </trkpt>
      <trkpt lat="59.9678209" lon="17.7577774">
        <ele>31.8607</ele>
        <time>2012-09-09T19:02:36Z</time>
      </trkpt>
      <trkpt lat="59.9677932" lon="17.7578036">
        <ele>32.8223</ele>
        <time>2012-09-09T19:02:38Z</time>
      </trkpt>
      <trkpt lat="59.9677353" lon="17.7578864">
        <ele>32.8223</ele>
        <time>2012-09-09T19:02:43Z</time>
      </trkpt>
      <trkpt lat="59.9676678" lon="17.757959">
        <ele>32.3416</ele>
        <time>2012-09-09T19:02:48Z</time>
      </trkpt>
      <trkpt lat="59.967657" lon="17.7579654">
        <ele>32.3416</ele>
        <time>2012-09-09T19:02:49Z</time>
      </trkpt>
      <trkpt lat="59.967548" lon="17.7580853">
        <ele>29.9381</ele>
        <time>2012-09-09T19:02:57Z</time>
      </trkpt>
      <trkpt lat="59.9674823" lon="17.7581509">
        <ele>29.4575</ele>
        <time>2012-09-09T19:03:02Z</time>
      </trkpt>
      <trkpt lat="59.9674574" lon="17.7581827">
        <ele>29.4575</ele>
        <time>2012-09-09T19:03:04Z</time>
      </trkpt>
      <trkpt lat="59.9674019" lon="17.7582587">
        <ele>28.9769</ele>
        <time>2012-09-09T19:03:09Z</time>
      </trkpt>
      <trkpt lat="59.9673359" lon="17.7583182">
        <ele>27.5349</ele>
        <time>2012-09-09T19:03:14Z</time>
      </trkpt>
      <trkpt lat="59.9672362" lon="17.7584186">
        <ele>26.0929</ele>
        <time>2012-09-09T19:03:21Z</time>
      </trkpt>
      <trkpt lat="59.9672088" lon="17.7584368">
        <ele>26.5736</ele>
        <time>2012-09-09T19:03:23Z</time>
      </trkpt>
      <trkpt lat="59.9671617" lon="17.7584685">
        <ele>26.0929</ele>
        <time>2012-09-09T19:03:27Z</time>
      </trkpt>
      <trkpt lat="59.9671109" lon="17.7585052">
        <ele>26.0929</ele>
        <time>2012-09-09T19:03:31Z</time>
      </trkpt>
      <trkpt lat="59.9670307" lon="17.7585571">
        <ele>25.6123</ele>
        <time>2012-09-09T19:03:37Z</time>
      </trkpt>
      <trkpt lat="59.9669887" lon="17.75854">
        <ele>28.9769</ele>
        <time>2012-09-09T19:03:42Z</time>
      </trkpt>
      <trkpt lat="59.9669249" lon="17.7585555">
        <ele>32.8223</ele>
        <time>2012-09-09T19:03:46Z</time>
      </trkpt>
      <trkpt lat="59.9669061" lon="17.7585466">
        <ele>33.7834</ele>
        <time>2012-09-09T19:03:47Z</time>
      </trkpt>
      <trkpt lat="59.9668686" lon="17.7585304">
        <ele>37.6287</ele>
        <time>2012-09-09T19:03:50Z</time>
      </trkpt>
      <trkpt lat="59.9668406" lon="17.758544">
        <ele>39.0707</ele>
        <time>2012-09-09T19:03:52Z</time>
      </trkpt>
      <trkpt lat="59.9667473" lon="17.7586874">
        <ele>40.9934</ele>
        <time>2012-09-09T19:03:58Z</time>
      </trkpt>
      <trkpt lat="59.9666682" lon="17.7587864">
        <ele>40.5128</ele>
        <time>2012-09-09T19:04:04Z</time>
      </trkpt>
      <trkpt lat="59.9665927" lon="17.7588858">
        <ele>37.6287</ele>
        <time>2012-09-09T19:04:09Z</time>
      </trkpt>
      <trkpt lat="59.9665467" lon="17.7589908">
        <ele>34.2642</ele>
        <time>2012-09-09T19:04:14Z</time>
      </trkpt>
      <trkpt lat="59.9665002" lon="17.7590773">
        <ele>32.8223</ele>
        <time>2012-09-09T19:04:17Z</time>
      </trkpt>
      <trkpt lat="59.966429" lon="17.7591667">
        <ele>30.4188</ele>
        <time>2012-09-09T19:04:23Z</time>
      </trkpt>
      <trkpt lat="59.9663816" lon="17.7592428">
        <ele>29.4575</ele>
        <time>2012-09-09T19:04:27Z</time>
      </trkpt>
      <trkpt lat="59.9663293" lon="17.7593117">
        <ele>28.4962</ele>
        <time>2012-09-09T19:04:31Z</time>
      </trkpt>
      <trkpt lat="59.9662257" lon="17.7595225">
        <ele>27.5349</ele>
        <time>2012-09-09T19:04:40Z</time>
      </trkpt>
      <trkpt lat="59.966136" lon="17.7596682">
        <ele>26.0929</ele>
        <time>2012-09-09T19:04:48Z</time>
      </trkpt>
      <trkpt lat="59.9660873" lon="17.7597587">
        <ele>25.6123</ele>
        <time>2012-09-09T19:04:52Z</time>
      </trkpt>
      <trkpt lat="59.9660309" lon="17.7598499">
        <ele>24.651</ele>
        <time>2012-09-09T19:04:58Z</time>
      </trkpt>
      <trkpt lat="59.9659786" lon="17.7599331">
        <ele>23.209</ele>
        <time>2012-09-09T19:05:03Z</time>
      </trkpt>
      <trkpt lat="59.9659505" lon="17.7599804">
        <ele>23.209</ele>
        <time>2012-09-09T19:05:05Z</time>
      </trkpt>
      <trkpt lat="59.9658963" lon="17.7600789">
        <ele>23.209</ele>
        <time>2012-09-09T19:05:10Z</time>
      </trkpt>
      <trkpt lat="59.9658439" lon="17.7601654">
        <ele>20.8057</ele>
        <time>2012-09-09T19:05:16Z</time>
      </trkpt>
      <trkpt lat="59.9657864" lon="17.7602368">
        <ele>17.4412</ele>
        <time>2012-09-09T19:05:21Z</time>
      </trkpt>
      <trkpt lat="59.9656847" lon="17.7603931">
        <ele>15.5184</ele>
        <time>2012-09-09T19:05:30Z</time>
      </trkpt>
      <trkpt lat="59.9655853" lon="17.7605482">
        <ele>14.557</ele>
        <time>2012-09-09T19:05:39Z</time>
      </trkpt>
      <trkpt lat="59.9655024" lon="17.7606812">
        <ele>16.4797</ele>
        <time>2012-09-09T19:05:45Z</time>
      </trkpt>
      <trkpt lat="59.9654311" lon="17.7608429">
        <ele>18.4023</ele>
        <time>2012-09-09T19:05:51Z</time>
      </trkpt>
      <trkpt lat="59.9654227" lon="17.7608621">
        <ele>17.9218</ele>
        <time>2012-09-09T19:05:52Z</time>
      </trkpt>
      <trkpt lat="59.9653493" lon="17.761034">
        <ele>16.4797</ele>
        <time>2012-09-09T19:06:01Z</time>
      </trkpt>
      <trkpt lat="59.965297" lon="17.7611418">
        <ele>15.0377</ele>
        <time>2012-09-09T19:06:07Z</time>
      </trkpt>
      <trkpt lat="59.9652834" lon="17.7611782">
        <ele>16.4797</ele>
        <time>2012-09-09T19:06:08Z</time>
      </trkpt>
      <trkpt lat="59.9652154" lon="17.7614179">
        <ele>15.0377</ele>
        <time>2012-09-09T19:06:17Z</time>
      </trkpt>
      <trkpt lat="59.9651247" lon="17.7616474">
        <ele>14.0764</ele>
        <time>2012-09-09T19:06:26Z</time>
      </trkpt>
      <trkpt lat="59.9650297" lon="17.7618793">
        <ele>13.5958</ele>
        <time>2012-09-09T19:06:36Z</time>
      </trkpt>
      <trkpt lat="59.9649269" lon="17.7621405">
        <ele>15.999</ele>
        <time>2012-09-09T19:06:46Z</time>
      </trkpt>
      <trkpt lat="59.9648223" lon="17.7624351">
        <ele>21.2864</ele>
        <time>2012-09-09T19:06:55Z</time>
      </trkpt>
      <trkpt lat="59.9647425" lon="17.7626995">
        <ele>19.3638</ele>
        <time>2012-09-09T19:07:06Z</time>
      </trkpt>
      <trkpt lat="59.9647353" lon="17.7627219">
        <ele>19.3638</ele>
        <time>2012-09-09T19:07:07Z</time>
      </trkpt>
      <trkpt lat="59.9647007" lon="17.7629129">
        <ele>18.4023</ele>
        <time>2012-09-09T19:07:14Z</time>
      </trkpt>
      <trkpt lat="59.9646478" lon="17.7631225">
        <ele>19.8444</ele>
        <time>2012-09-09T19:07:21Z</time>
      </trkpt>
      <trkpt lat="59.9646316" lon="17.763179">
        <ele>20.325</ele>
        <time>2012-09-09T19:07:23Z</time>
      </trkpt>
      <trkpt lat="59.9645809" lon="17.7634258">
        <ele>21.2864</ele>
        <time>2012-09-09T19:07:31Z</time>
      </trkpt>
      <trkpt lat="59.9645358" lon="17.7635722">
        <ele>21.2864</ele>
        <time>2012-09-09T19:07:37Z</time>
      </trkpt>
      <trkpt lat="59.9644765" lon="17.7638317">
        <ele>22.2476</ele>
        <time>2012-09-09T19:07:46Z</time>
      </trkpt>
      <trkpt lat="59.9644601" lon="17.7639309">
        <ele>21.767</ele>
        <time>2012-09-09T19:07:50Z</time>
      </trkpt>
      <trkpt lat="59.9644298" lon="17.7640345">
        <ele>22.2476</ele>
        <time>2012-09-09T19:07:54Z</time>
      </trkpt>
      <trkpt lat="59.9643563" lon="17.7642727">
        <ele>21.767</ele>
        <time>2012-09-09T19:08:04Z</time>
      </trkpt>
      <trkpt lat="59.9643081" lon="17.7644638">
        <ele>23.209</ele>
        <time>2012-09-09T19:08:10Z</time>
      </trkpt>
      <trkpt lat="59.9642568" lon="17.764662">
        <ele>24.1703</ele>
        <time>2012-09-09T19:08:17Z</time>
      </trkpt>
      <trkpt lat="59.9642153" lon="17.7648585">
        <ele>26.0929</ele>
        <time>2012-09-09T19:08:24Z</time>
      </trkpt>
      <trkpt lat="59.9641853" lon="17.7650435">
        <ele>24.651</ele>
        <time>2012-09-09T19:08:30Z</time>
      </trkpt>
      <trkpt lat="59.9641464" lon="17.7652932">
        <ele>24.1703</ele>
        <time>2012-09-09T19:08:38Z</time>
      </trkpt>
      <trkpt lat="59.9641211" lon="17.7655479">
        <ele>24.651</ele>
        <time>2012-09-09T19:08:46Z</time>
      </trkpt>
      <trkpt lat="59.9641132" lon="17.7656576">
        <ele>23.6896</ele>
        <time>2012-09-09T19:08:49Z</time>
      </trkpt>
      <trkpt lat="59.9641234" lon="17.7658311">
        <ele>24.651</ele>
        <time>2012-09-09T19:08:56Z</time>
      </trkpt>
      <trkpt lat="59.9641246" lon="17.7658651">
        <ele>24.1703</ele>
        <time>2012-09-09T19:08:57Z</time>
      </trkpt>
      <trkpt lat="59.9641205" lon="17.766069">
        <ele>24.651</ele>
        <time>2012-09-09T19:09:04Z</time>
      </trkpt>
      <trkpt lat="59.9641166" lon="17.7662666">
        <ele>26.5736</ele>
        <time>2012-09-09T19:09:10Z</time>
      </trkpt>
      <trkpt lat="59.9641128" lon="17.7664256">
        <ele>27.0543</ele>
        <time>2012-09-09T19:09:16Z</time>
      </trkpt>
      <trkpt lat="59.9641218" lon="17.7665861">
        <ele>28.4962</ele>
        <time>2012-09-09T19:09:22Z</time>
      </trkpt>
      <trkpt lat="59.9641116" lon="17.7668587">
        <ele>28.9769</ele>
        <time>2012-09-09T19:09:29Z</time>
      </trkpt>
      <trkpt lat="59.9640975" lon="17.7671216">
        <ele>30.4188</ele>
        <time>2012-09-09T19:09:37Z</time>
      </trkpt>
      <trkpt lat="59.9640567" lon="17.7674171">
        <ele>30.4188</ele>
        <time>2012-09-09T19:09:46Z</time>
      </trkpt>
      <trkpt lat="59.9640008" lon="17.7677093">
        <ele>29.4575</ele>
        <time>2012-09-09T19:09:55Z</time>
      </trkpt>
      <trkpt lat="59.9639444" lon="17.7679222">
        <ele>28.9769</ele>
        <time>2012-09-09T19:10:03Z</time>
      </trkpt>
      <trkpt lat="59.9639188" lon="17.7680914">
        <ele>29.9381</ele>
        <time>2012-09-09T19:10:09Z</time>
      </trkpt>
      <trkpt lat="59.9638683" lon="17.7683095">
        <ele>29.9381</ele>
        <time>2012-09-09T19:10:17Z</time>
      </trkpt>
      <trkpt lat="59.9638289" lon="17.7684934">
        <ele>29.9381</ele>
        <time>2012-09-09T19:10:23Z</time>
      </trkpt>
      <trkpt lat="59.9637369" lon="17.7687447">
        <ele>28.0155</ele>
        <time>2012-09-09T19:10:32Z</time>
      </trkpt>
      <trkpt lat="59.9636553" lon="17.7689985">
        <ele>25.6123</ele>
        <time>2012-09-09T19:10:41Z</time>
      </trkpt>
      <trkpt lat="59.9636102" lon="17.769168">
        <ele>24.1703</ele>
        <time>2012-09-09T19:10:47Z</time>
      </trkpt>
      <trkpt lat="59.9635501" lon="17.7693714">
        <ele>26.0929</ele>
        <time>2012-09-09T19:10:53Z</time>
      </trkpt>
      <trkpt lat="59.963503" lon="17.7695925">
        <ele>26.5736</ele>
        <time>2012-09-09T19:11:01Z</time>
      </trkpt>
      <trkpt lat="59.9634848" lon="17.76982">
        <ele>26.5736</ele>
        <time>2012-09-09T19:11:08Z</time>
      </trkpt>
      <trkpt lat="59.9634963" lon="17.7700564">
        <ele>27.5349</ele>
        <time>2012-09-09T19:11:15Z</time>
      </trkpt>
      <trkpt lat="59.9635005" lon="17.770322">
        <ele>28.9769</ele>
        <time>2012-09-09T19:11:23Z</time>
      </trkpt>
      <trkpt lat="59.9635218" lon="17.770528">
        <ele>29.4575</ele>
        <time>2012-09-09T19:11:30Z</time>
      </trkpt>
      <trkpt lat="59.9635375" lon="17.7707587">
        <ele>27.5349</ele>
        <time>2012-09-09T19:11:37Z</time>
      </trkpt>
      <trkpt lat="59.9635797" lon="17.7709392">
        <ele>28.4962</ele>
        <time>2012-09-09T19:11:43Z</time>
      </trkpt>
      <trkpt lat="59.9636294" lon="17.7711478">
        <ele>28.4962</ele>
        <time>2012-09-09T19:11:50Z</time>
      </trkpt>
      <trkpt lat="59.9636999" lon="17.7714145">
        <ele>30.8995</ele>
        <time>2012-09-09T19:11:59Z</time>
      </trkpt>
      <trkpt lat="59.9637364" lon="17.7715985">
        <ele>31.8607</ele>
        <time>2012-09-09T19:12:05Z</time>
      </trkpt>
      <trkpt lat="59.9638066" lon="17.7719165">
        <ele>33.3029</ele>
        <time>2012-09-09T19:12:15Z</time>
      </trkpt>
      <trkpt lat="59.9638697" lon="17.772183">
        <ele>34.7449</ele>
        <time>2012-09-09T19:12:23Z</time>
      </trkpt>
      <trkpt lat="59.963907" lon="17.7724273">
        <ele>34.2642</ele>
        <time>2012-09-09T19:12:30Z</time>
      </trkpt>
      <trkpt lat="59.9639314" lon="17.7726193">
        <ele>33.3029</ele>
        <time>2012-09-09T19:12:36Z</time>
      </trkpt>
      <trkpt lat="59.9639421" lon="17.772866">
        <ele>31.8607</ele>
        <time>2012-09-09T19:12:43Z</time>
      </trkpt>
      <trkpt lat="59.9639279" lon="17.7730546">
        <ele>30.8995</ele>
        <time>2012-09-09T19:12:49Z</time>
      </trkpt>
      <trkpt lat="59.963922" lon="17.7730711">
        <ele>30.4188</ele>
        <time>2012-09-09T19:12:50Z</time>
      </trkpt>
      <trkpt lat="59.9638796" lon="17.7729748">
        <ele>26.0929</ele>
        <time>2012-09-09T19:12:55Z</time>
      </trkpt>
      <trkpt lat="59.9638654" lon="17.7727738">
        <ele>24.651</ele>
        <time>2012-09-09T19:13:00Z</time>
      </trkpt>
      <trkpt lat="59.9638164" lon="17.7724417">
        <ele>26.0929</ele>
        <time>2012-09-09T19:13:10Z</time>
      </trkpt>
      <trkpt lat="59.9637656" lon="17.7721664">
        <ele>28.0155</ele>
        <time>2012-09-09T19:13:19Z</time>
      </trkpt>
      <trkpt lat="59.9637233" lon="17.7719751">
        <ele>29.4575</ele>
        <time>2012-09-09T19:13:25Z</time>
      </trkpt>
      <trkpt lat="59.9636677" lon="17.771718">
        <ele>31.8607</ele>
        <time>2012-09-09T19:13:34Z</time>
      </trkpt>
      <trkpt lat="59.9636242" lon="17.7715181">
        <ele>32.8223</ele>
        <time>2012-09-09T19:13:41Z</time>
      </trkpt>
      <trkpt lat="59.9635724" lon="17.7712772">
        <ele>32.3416</ele>
        <time>2012-09-09T19:13:49Z</time>
      </trkpt>
      <trkpt lat="59.963517" lon="17.7710263">
        <ele>31.8607</ele>
        <time>2012-09-09T19:13:58Z</time>
      </trkpt>
      <trkpt lat="59.9634812" lon="17.7708779">
        <ele>32.8223</ele>
        <time>2012-09-09T19:14:03Z</time>
      </trkpt>
      <trkpt lat="59.9634538" lon="17.7707032">
        <ele>33.3029</ele>
        <time>2012-09-09T19:14:09Z</time>
      </trkpt>
      <trkpt lat="59.9634487" lon="17.7705332">
        <ele>34.2642</ele>
        <time>2012-09-09T19:14:15Z</time>
      </trkpt>
      <trkpt lat="59.9634418" lon="17.7704681">
        <ele>33.7834</ele>
        <time>2012-09-09T19:14:17Z</time>
      </trkpt>
      <trkpt lat="59.9634496" lon="17.7702008">
        <ele>31.8607</ele>
        <time>2012-09-09T19:14:26Z</time>
      </trkpt>
      <trkpt lat="59.9634665" lon="17.7700169">
        <ele>29.4575</ele>
        <time>2012-09-09T19:14:32Z</time>
      </trkpt>
      <trkpt lat="59.9634798" lon="17.7698014">
        <ele>26.5736</ele>
        <time>2012-09-09T19:14:39Z</time>
      </trkpt>
      <trkpt lat="59.9634808" lon="17.7697692">
        <ele>26.0929</ele>
        <time>2012-09-09T19:14:40Z</time>
      </trkpt>
      <trkpt lat="59.9635067" lon="17.7696273">
        <ele>24.1703</ele>
        <time>2012-09-09T19:14:45Z</time>
      </trkpt>
      <trkpt lat="59.9635245" lon="17.7694645">
        <ele>25.1317</ele>
        <time>2012-09-09T19:14:51Z</time>
      </trkpt>
      <trkpt lat="59.9635658" lon="17.7692154">
        <ele>26.0929</ele>
        <time>2012-09-09T19:15:00Z</time>
      </trkpt>
      <trkpt lat="59.9636093" lon="17.7690032">
        <ele>28.0155</ele>
        <time>2012-09-09T19:15:07Z</time>
      </trkpt>
      <trkpt lat="59.9636753" lon="17.7687694">
        <ele>29.4575</ele>
        <time>2012-09-09T19:15:15Z</time>
      </trkpt>
      <trkpt lat="59.963735" lon="17.76856">
        <ele>28.9769</ele>
        <time>2012-09-09T19:15:23Z</time>
      </trkpt>
      <trkpt lat="59.9637905" lon="17.7683487">
        <ele>29.4575</ele>
        <time>2012-09-09T19:15:31Z</time>
      </trkpt>
      <trkpt lat="59.9638526" lon="17.7681451">
        <ele>28.9769</ele>
        <time>2012-09-09T19:15:39Z</time>
      </trkpt>
      <trkpt lat="59.9638967" lon="17.7679433">
        <ele>28.0155</ele>
        <time>2012-09-09T19:15:46Z</time>
      </trkpt>
      <trkpt lat="59.9639392" lon="17.7677433">
        <ele>29.9381</ele>
        <time>2012-09-09T19:15:53Z</time>
      </trkpt>
      <trkpt lat="59.9639433" lon="17.7677181">
        <ele>29.9381</ele>
        <time>2012-09-09T19:15:54Z</time>
      </trkpt>
      <trkpt lat="59.9639576" lon="17.7675965">
        <ele>28.9769</ele>
        <time>2012-09-09T19:15:58Z</time>
      </trkpt>
      <trkpt lat="59.9640151" lon="17.7672883">
        <ele>28.0155</ele>
        <time>2012-09-09T19:16:09Z</time>
      </trkpt>
      <trkpt lat="59.9640508" lon="17.767065">
        <ele>27.5349</ele>
        <time>2012-09-09T19:16:17Z</time>
      </trkpt>
      <trkpt lat="59.9640574" lon="17.7670076">
        <ele>27.0543</ele>
        <time>2012-09-09T19:16:19Z</time>
      </trkpt>
      <trkpt lat="59.9640521" lon="17.7668399">
        <ele>25.1317</ele>
        <time>2012-09-09T19:16:25Z</time>
      </trkpt>
      <trkpt lat="59.9640486" lon="17.7667814">
        <ele>25.1317</ele>
        <time>2012-09-09T19:16:27Z</time>
      </trkpt>
      <trkpt lat="59.9640635" lon="17.7665845">
        <ele>21.767</ele>
        <time>2012-09-09T19:16:35Z</time>
      </trkpt>
      <trkpt lat="59.9640718" lon="17.7664416">
        <ele>19.3638</ele>
        <time>2012-09-09T19:16:40Z</time>
      </trkpt>
      <trkpt lat="59.964083" lon="17.7663343">
        <ele>18.8831</ele>
        <time>2012-09-09T19:16:44Z</time>
      </trkpt>
      <trkpt lat="59.9640986" lon="17.7662006">
        <ele>18.4023</ele>
        <time>2012-09-09T19:16:49Z</time>
      </trkpt>
      <trkpt lat="59.9641095" lon="17.7661186">
        <ele>17.4412</ele>
        <time>2012-09-09T19:16:52Z</time>
      </trkpt>
      <trkpt lat="59.9641368" lon="17.7660009">
        <ele>17.4412</ele>
        <time>2012-09-09T19:16:56Z</time>
      </trkpt>
      <trkpt lat="59.9641505" lon="17.7658504">
        <ele>16.4797</ele>
        <time>2012-09-09T19:17:00Z</time>
      </trkpt>
      <trkpt lat="59.9641664" lon="17.7655989">
        <ele>14.0764</ele>
        <time>2012-09-09T19:17:07Z</time>
      </trkpt>
      <trkpt lat="59.9641609" lon="17.7653542">
        <ele>10.7118</ele>
        <time>2012-09-09T19:17:13Z</time>
      </trkpt>
      <trkpt lat="59.9642112" lon="17.7651555">
        <ele>9.75061</ele>
        <time>2012-09-09T19:17:19Z</time>
      </trkpt>
      <trkpt lat="59.9642443" lon="17.7649523">
        <ele>11.1925</ele>
        <time>2012-09-09T19:17:25Z</time>
      </trkpt>
      <trkpt lat="59.9642899" lon="17.7647508">
        <ele>13.5958</ele>
        <time>2012-09-09T19:17:32Z</time>
      </trkpt>
      <trkpt lat="59.9643442" lon="17.7645328">
        <ele>15.999</ele>
        <time>2012-09-09T19:17:39Z</time>
      </trkpt>
      <trkpt lat="59.964366" lon="17.7643052">
        <ele>15.0377</ele>
        <time>2012-09-09T19:17:46Z</time>
      </trkpt>
      <trkpt lat="59.9644095" lon="17.7641025">
        <ele>15.5184</ele>
        <time>2012-09-09T19:17:53Z</time>
      </trkpt>
      <trkpt lat="59.9644396" lon="17.7639422">
        <ele>15.999</ele>
        <time>2012-09-09T19:17:58Z</time>
      </trkpt>
      <trkpt lat="59.9645411" lon="17.7636638">
        <ele>19.8444</ele>
        <time>2012-09-09T19:18:08Z</time>
      </trkpt>
      <trkpt lat="59.9645913" lon="17.7634769">
        <ele>20.8057</ele>
        <time>2012-09-09T19:18:15Z</time>
      </trkpt>
      <trkpt lat="59.9646569" lon="17.7632646">
        <ele>20.325</ele>
        <time>2012-09-09T19:18:23Z</time>
      </trkpt>
      <trkpt lat="59.9647054" lon="17.7630406">
        <ele>20.8057</ele>
        <time>2012-09-09T19:18:31Z</time>
      </trkpt>
      <trkpt lat="59.9647342" lon="17.7628781">
        <ele>20.325</ele>
        <time>2012-09-09T19:18:37Z</time>
      </trkpt>
      <trkpt lat="59.9648087" lon="17.7626306">
        <ele>20.8057</ele>
        <time>2012-09-09T19:18:46Z</time>
      </trkpt>
      <trkpt lat="59.9648592" lon="17.7624482">
        <ele>21.2864</ele>
        <time>2012-09-09T19:18:53Z</time>
      </trkpt>
      <trkpt lat="59.9648918" lon="17.7623486">
        <ele>21.767</ele>
        <time>2012-09-09T19:18:57Z</time>
      </trkpt>
      <trkpt lat="59.9649498" lon="17.7621949">
        <ele>22.2476</ele>
        <time>2012-09-09T19:19:03Z</time>
      </trkpt>
      <trkpt lat="59.9650166" lon="17.7620075">
        <ele>23.209</ele>
        <time>2012-09-09T19:19:10Z</time>
      </trkpt>
      <trkpt lat="59.9650835" lon="17.76181">
        <ele>22.2476</ele>
        <time>2012-09-09T19:19:18Z</time>
      </trkpt>
      <trkpt lat="59.9651496" lon="17.761609">
        <ele>22.2476</ele>
        <time>2012-09-09T19:19:26Z</time>
      </trkpt>
      <trkpt lat="59.9652082" lon="17.7614286">
        <ele>22.7283</ele>
        <time>2012-09-09T19:19:33Z</time>
      </trkpt>
      <trkpt lat="59.965258" lon="17.7612786">
        <ele>22.7283</ele>
        <time>2012-09-09T19:19:39Z</time>
      </trkpt>
      <trkpt lat="59.9653148" lon="17.7611423">
        <ele>23.209</ele>
        <time>2012-09-09T19:19:45Z</time>
      </trkpt>
      <trkpt lat="59.9653254" lon="17.7611211">
        <ele>23.209</ele>
        <time>2012-09-09T19:19:46Z</time>
      </trkpt>
      <trkpt lat="59.9654008" lon="17.7609547">
        <ele>24.1703</ele>
        <time>2012-09-09T19:19:53Z</time>
      </trkpt>
      <trkpt lat="59.9654839" lon="17.7607917">
        <ele>26.0929</ele>
        <time>2012-09-09T19:20:00Z</time>
      </trkpt>
      <trkpt lat="59.9655733" lon="17.7606286">
        <ele>28.4962</ele>
        <time>2012-09-09T19:20:08Z</time>
      </trkpt>
      <trkpt lat="59.9656086" lon="17.7605797">
        <ele>28.0155</ele>
        <time>2012-09-09T19:20:11Z</time>
      </trkpt>
      <trkpt lat="59.9656807" lon="17.7604266">
        <ele>27.0543</ele>
        <time>2012-09-09T19:20:18Z</time>
      </trkpt>
      <trkpt lat="59.9657414" lon="17.760341">
        <ele>27.0543</ele>
        <time>2012-09-09T19:20:23Z</time>
      </trkpt>
      <trkpt lat="59.965817" lon="17.7602021">
        <ele>24.1703</ele>
        <time>2012-09-09T19:20:30Z</time>
      </trkpt>
      <trkpt lat="59.9658884" lon="17.7600616">
        <ele>23.6896</ele>
        <time>2012-09-09T19:20:37Z</time>
      </trkpt>
      <trkpt lat="59.9659578" lon="17.7599405">
        <ele>23.6896</ele>
        <time>2012-09-09T19:20:43Z</time>
      </trkpt>
      <trkpt lat="59.9660323" lon="17.7598339">
        <ele>25.1317</ele>
        <time>2012-09-09T19:20:49Z</time>
      </trkpt>
      <trkpt lat="59.9661086" lon="17.7596922">
        <ele>25.6123</ele>
        <time>2012-09-09T19:20:56Z</time>
      </trkpt>
      <trkpt lat="59.9662027" lon="17.7595448">
        <ele>27.0543</ele>
        <time>2012-09-09T19:21:03Z</time>
      </trkpt>
      <trkpt lat="59.9663156" lon="17.7593976">
        <ele>28.0155</ele>
        <time>2012-09-09T19:21:11Z</time>
      </trkpt>
      <trkpt lat="59.9663396" lon="17.7593687">
        <ele>28.0155</ele>
        <time>2012-09-09T19:21:13Z</time>
      </trkpt>
      <trkpt lat="59.9664096" lon="17.7592659">
        <ele>28.4962</ele>
        <time>2012-09-09T19:21:19Z</time>
      </trkpt>
      <trkpt lat="59.9665163" lon="17.7591172">
        <ele>28.9769</ele>
        <time>2012-09-09T19:21:28Z</time>
      </trkpt>
      <trkpt lat="59.9666269" lon="17.7589745">
        <ele>29.9381</ele>
        <time>2012-09-09T19:21:37Z</time>
      </trkpt>
      <trkpt lat="59.9666969" lon="17.7588492">
        <ele>29.4575</ele>
        <time>2012-09-09T19:21:43Z</time>
      </trkpt>
      <trkpt lat="59.9668223" lon="17.7587044">
        <ele>27.0543</ele>
        <time>2012-09-09T19:21:53Z</time>
      </trkpt>
      <trkpt lat="59.9669658" lon="17.758586">
        <ele>26.5736</ele>
        <time>2012-09-09T19:22:03Z</time>
      </trkpt>
      <trkpt lat="59.9670839" lon="17.7584957">
        <ele>27.0543</ele>
        <time>2012-09-09T19:22:11Z</time>
      </trkpt>
      <trkpt lat="59.9671815" lon="17.7584294">
        <ele>27.5349</ele>
        <time>2012-09-09T19:22:17Z</time>
      </trkpt>
      <trkpt lat="59.9672801" lon="17.7583534">
        <ele>26.0929</ele>
        <time>2012-09-09T19:22:24Z</time>
      </trkpt>
      <trkpt lat="59.9673668" lon="17.7582632">
        <ele>25.6123</ele>
        <time>2012-09-09T19:22:30Z</time>
      </trkpt>
      <trkpt lat="59.9674205" lon="17.7582117">
        <ele>25.6123</ele>
        <time>2012-09-09T19:22:34Z</time>
      </trkpt>
      <trkpt lat="59.9675206" lon="17.7580708">
        <ele>26.5736</ele>
        <time>2012-09-09T19:22:42Z</time>
      </trkpt>
      <trkpt lat="59.9676336" lon="17.7579727">
        <ele>28.0155</ele>
        <time>2012-09-09T19:22:50Z</time>
      </trkpt>
      <trkpt lat="59.9676896" lon="17.7578917">
        <ele>27.0543</ele>
        <time>2012-09-09T19:22:55Z</time>
      </trkpt>
      <trkpt lat="59.9677233" lon="17.7578539">
        <ele>26.0929</ele>
        <time>2012-09-09T19:22:58Z</time>
      </trkpt>
      <trkpt lat="59.9678273" lon="17.7577219">
        <ele>25.1317</ele>
        <time>2012-09-09T19:23:06Z</time>
      </trkpt>
      <trkpt lat="59.9679772" lon="17.7575448">
        <ele>26.0929</ele>
        <time>2012-09-09T19:23:17Z</time>
      </trkpt>
      <trkpt lat="59.9680858" lon="17.7573985">
        <ele>25.1317</ele>
        <time>2012-09-09T19:23:26Z</time>
      </trkpt>
      <trkpt lat="59.9681375" lon="17.7573259">
        <ele>25.6123</ele>
        <time>2012-09-09T19:23:30Z</time>
      </trkpt>
      <trkpt lat="59.9682322" lon="17.7572298">
        <ele>25.1317</ele>
        <time>2012-09-09T19:23:36Z</time>
      </trkpt>
      <trkpt lat="59.9683503" lon="17.7570609">
        <ele>26.0929</ele>
        <time>2012-09-09T19:23:45Z</time>
      </trkpt>
      <trkpt lat="59.9684304" lon="17.7569204">
        <ele>25.6123</ele>
        <time>2012-09-09T19:23:52Z</time>
      </trkpt>
      <trkpt lat="59.9684913" lon="17.7568307">
        <ele>26.5736</ele>
        <time>2012-09-09T19:23:57Z</time>
      </trkpt>
      <trkpt lat="59.9685754" lon="17.7566962">
        <ele>28.4962</ele>
        <time>2012-09-09T19:24:04Z</time>
      </trkpt>
      <trkpt lat="59.9686649" lon="17.7565293">
        <ele>28.0155</ele>
        <time>2012-09-09T19:24:12Z</time>
      </trkpt>
      <trkpt lat="59.9687637" lon="17.75639">
        <ele>29.4575</ele>
        <time>2012-09-09T19:24:20Z</time>
      </trkpt>
      <trkpt lat="59.9687868" lon="17.7563539">
        <ele>29.4575</ele>
        <time>2012-09-09T19:24:22Z</time>
      </trkpt>
      <trkpt lat="59.968887" lon="17.7562361">
        <ele>31.3801</ele>
        <time>2012-09-09T19:24:30Z</time>
      </trkpt>
      <trkpt lat="59.9690141" lon="17.7559994">
        <ele>30.8995</ele>
        <time>2012-09-09T19:24:41Z</time>
      </trkpt>
      <trkpt lat="59.969097" lon="17.7558322">
        <ele>31.3801</ele>
        <time>2012-09-09T19:24:48Z</time>
      </trkpt>
      <trkpt lat="59.9691686" lon="17.7556929">
        <ele>31.3801</ele>
        <time>2012-09-09T19:24:54Z</time>
      </trkpt>
      <trkpt lat="59.96924" lon="17.7555561">
        <ele>31.3801</ele>
        <time>2012-09-09T19:25:00Z</time>
      </trkpt>
      <trkpt lat="59.9693358" lon="17.7553648">
        <ele>31.8607</ele>
        <time>2012-09-09T19:25:09Z</time>
      </trkpt>
      <trkpt lat="59.9693591" lon="17.7553333">
        <ele>31.8607</ele>
        <time>2012-09-09T19:25:11Z</time>
      </trkpt>
      <trkpt lat="59.9694435" lon="17.7551577">
        <ele>31.3801</ele>
        <time>2012-09-09T19:25:19Z</time>
      </trkpt>
      <trkpt lat="59.9695047" lon="17.7550267">
        <ele>28.4962</ele>
        <time>2012-09-09T19:25:25Z</time>
      </trkpt>
      <trkpt lat="59.9695477" lon="17.7548509">
        <ele>26.0929</ele>
        <time>2012-09-09T19:25:32Z</time>
      </trkpt>
      <trkpt lat="59.969614" lon="17.7547055">
        <ele>26.0929</ele>
        <time>2012-09-09T19:25:39Z</time>
      </trkpt>
      <trkpt lat="59.9696946" lon="17.7545582">
        <ele>27.0543</ele>
        <time>2012-09-09T19:25:46Z</time>
      </trkpt>
      <trkpt lat="59.969787" lon="17.7543852">
        <ele>26.5736</ele>
        <time>2012-09-09T19:25:54Z</time>
      </trkpt>
      <trkpt lat="59.9698636" lon="17.754245">
        <ele>25.6123</ele>
        <time>2012-09-09T19:26:01Z</time>
      </trkpt>
      <trkpt lat="59.9699438" lon="17.7540894">
        <ele>25.6123</ele>
        <time>2012-09-09T19:26:08Z</time>
      </trkpt>
      <trkpt lat="59.9700249" lon="17.7539088">
        <ele>25.6123</ele>
        <time>2012-09-09T19:26:16Z</time>
      </trkpt>
      <trkpt lat="59.97009" lon="17.7537364">
        <ele>26.0929</ele>
        <time>2012-09-09T19:26:23Z</time>
      </trkpt>
      <trkpt lat="59.9701455" lon="17.7536017">
        <ele>25.6123</ele>
        <time>2012-09-09T19:26:29Z</time>
      </trkpt>
      <trkpt lat="59.9702043" lon="17.7534002">
        <ele>25.6123</ele>
        <time>2012-09-09T19:26:37Z</time>
      </trkpt>
      <trkpt lat="59.9702683" lon="17.7532136">
        <ele>26.0929</ele>
        <time>2012-09-09T19:26:44Z</time>
      </trkpt>
      <trkpt lat="59.9703412" lon="17.7530485">
        <ele>26.5736</ele>
        <time>2012-09-09T19:26:51Z</time>
      </trkpt>
      <trkpt lat="59.9704117" lon="17.752862">
        <ele>26.5736</ele>
        <time>2012-09-09T19:26:59Z</time>
      </trkpt>
      <trkpt lat="59.9705025" lon="17.7526279">
        <ele>28.0155</ele>
        <time>2012-09-09T19:27:08Z</time>
      </trkpt>
      <trkpt lat="59.9705778" lon="17.7524844">
        <ele>28.0155</ele>
        <time>2012-09-09T19:27:15Z</time>
      </trkpt>
      <trkpt lat="59.9706648" lon="17.7522807">
        <ele>28.4962</ele>
        <time>2012-09-09T19:27:24Z</time>
      </trkpt>
      <trkpt lat="59.9707567" lon="17.7521003">
        <ele>28.9769</ele>
        <time>2012-09-09T19:27:33Z</time>
      </trkpt>
      <trkpt lat="59.9708475" lon="17.7518922">
        <ele>28.4962</ele>
        <time>2012-09-09T19:27:42Z</time>
      </trkpt>
      <trkpt lat="59.9709032" lon="17.7517848">
        <ele>28.9769</ele>
        <time>2012-09-09T19:27:47Z</time>
      </trkpt>
      <trkpt lat="59.9709244" lon="17.7517379">
        <ele>28.4962</ele>
        <time>2012-09-09T19:27:49Z</time>
      </trkpt>
      <trkpt lat="59.9710079" lon="17.7516001">
        <ele>27.0543</ele>
        <time>2012-09-09T19:27:56Z</time>
      </trkpt>
      <trkpt lat="59.9711098" lon="17.7515056">
        <ele>28.0155</ele>
        <time>2012-09-09T19:28:03Z</time>
      </trkpt>
      <trkpt lat="59.9712305" lon="17.7513518">
        <ele>29.4575</ele>
        <time>2012-09-09T19:28:12Z</time>
      </trkpt>
      <trkpt lat="59.9713472" lon="17.7511965">
        <ele>29.9381</ele>
        <time>2012-09-09T19:28:21Z</time>
      </trkpt>
      <trkpt lat="59.9714574" lon="17.7510241">
        <ele>30.4188</ele>
        <time>2012-09-09T19:28:30Z</time>
      </trkpt>
      <trkpt lat="59.9715011" lon="17.7509509">
        <ele>30.8995</ele>
        <time>2012-09-09T19:28:34Z</time>
      </trkpt>
      <trkpt lat="59.9715581" lon="17.7508821">
        <ele>30.4188</ele>
        <time>2012-09-09T19:28:39Z</time>
      </trkpt>
      <trkpt lat="59.9716357" lon="17.7507591">
        <ele>29.9381</ele>
        <time>2012-09-09T19:28:46Z</time>
      </trkpt>
      <trkpt lat="59.9717216" lon="17.750633">
        <ele>30.4188</ele>
        <time>2012-09-09T19:28:53Z</time>
      </trkpt>
      <trkpt lat="59.9718607" lon="17.7504376">
        <ele>31.8607</ele>
        <time>2012-09-09T19:29:03Z</time>
      </trkpt>
      <trkpt lat="59.9719553" lon="17.7503222">
        <ele>32.3416</ele>
        <time>2012-09-09T19:29:10Z</time>
      </trkpt>
      <trkpt lat="59.9720451" lon="17.7501857">
        <ele>33.3029</ele>
        <time>2012-09-09T19:29:17Z</time>
      </trkpt>
      <trkpt lat="59.972116" lon="17.7500322">
        <ele>31.3801</ele>
        <time>2012-09-09T19:29:24Z</time>
      </trkpt>
      <trkpt lat="59.9721606" lon="17.7497714">
        <ele>26.0929</ele>
        <time>2012-09-09T19:29:31Z</time>
      </trkpt>
      <trkpt lat="59.9722174" lon="17.7495776">
        <ele>29.4575</ele>
        <time>2012-09-09T19:29:37Z</time>
      </trkpt>
      <trkpt lat="59.9722864" lon="17.7494124">
        <ele>29.9381</ele>
        <time>2012-09-09T19:29:43Z</time>
      </trkpt>
      <trkpt lat="59.9723341" lon="17.7493005">
        <ele>29.9381</ele>
        <time>2012-09-09T19:29:48Z</time>
      </trkpt>
      <trkpt lat="59.9724742" lon="17.7490374">
        <ele>29.9381</ele>
        <time>2012-09-09T19:29:58Z</time>
      </trkpt>
      <trkpt lat="59.9725411" lon="17.748891">
        <ele>28.0155</ele>
        <time>2012-09-09T19:30:04Z</time>
      </trkpt>
      <trkpt lat="59.9726107" lon="17.7487142">
        <ele>26.5736</ele>
        <time>2012-09-09T19:30:11Z</time>
      </trkpt>
      <trkpt lat="59.9726231" lon="17.7486955">
        <ele>26.5736</ele>
        <time>2012-09-09T19:30:12Z</time>
      </trkpt>
      <trkpt lat="59.9726799" lon="17.7485786">
        <ele>24.1703</ele>
        <time>2012-09-09T19:30:17Z</time>
      </trkpt>
      <trkpt lat="59.9727789" lon="17.7483521">
        <ele>25.1317</ele>
        <time>2012-09-09T19:30:26Z</time>
      </trkpt>
      <trkpt lat="59.9728592" lon="17.7481486">
        <ele>27.5349</ele>
        <time>2012-09-09T19:30:33Z</time>
      </trkpt>
      <trkpt lat="59.9729473" lon="17.7480129">
        <ele>29.9381</ele>
        <time>2012-09-09T19:30:40Z</time>
      </trkpt>
      <trkpt lat="59.9730416" lon="17.7478767">
        <ele>30.8995</ele>
        <time>2012-09-09T19:30:48Z</time>
      </trkpt>
      <trkpt lat="59.973124" lon="17.7477813">
        <ele>30.8995</ele>
        <time>2012-09-09T19:30:55Z</time>
      </trkpt>
      <trkpt lat="59.9732555" lon="17.7476244">
        <ele>33.7834</ele>
        <time>2012-09-09T19:31:05Z</time>
      </trkpt>
      <trkpt lat="59.9733473" lon="17.7475148">
        <ele>34.7449</ele>
        <time>2012-09-09T19:31:12Z</time>
      </trkpt>
      <trkpt lat="59.9734326" lon="17.7473897">
        <ele>34.7449</ele>
        <time>2012-09-09T19:31:19Z</time>
      </trkpt>
      <trkpt lat="59.9735358" lon="17.7473301">
        <ele>34.2642</ele>
        <time>2012-09-09T19:31:26Z</time>
      </trkpt>
      <trkpt lat="59.9736326" lon="17.7472301">
        <ele>35.7061</ele>
        <time>2012-09-09T19:31:33Z</time>
      </trkpt>
      <trkpt lat="59.9737358" lon="17.7471519">
        <ele>35.7061</ele>
        <time>2012-09-09T19:31:40Z</time>
      </trkpt>
      <trkpt lat="59.9737576" lon="17.7471113">
        <ele>35.2255</ele>
        <time>2012-09-09T19:31:42Z</time>
      </trkpt>
      <trkpt lat="59.9738776" lon="17.7469635">
        <ele>32.3416</ele>
        <time>2012-09-09T19:31:51Z</time>
      </trkpt>
      <trkpt lat="59.973975" lon="17.7468296">
        <ele>30.8995</ele>
        <time>2012-09-09T19:31:58Z</time>
      </trkpt>
      <trkpt lat="59.9740968" lon="17.7466853">
        <ele>32.3416</ele>
        <time>2012-09-09T19:32:07Z</time>
      </trkpt>
      <trkpt lat="59.9742093" lon="17.7465335">
        <ele>31.3801</ele>
        <time>2012-09-09T19:32:16Z</time>
      </trkpt>
      <trkpt lat="59.97431" lon="17.746379">
        <ele>31.8607</ele>
        <time>2012-09-09T19:32:24Z</time>
      </trkpt>
      <trkpt lat="59.9743886" lon="17.7462687">
        <ele>32.8223</ele>
        <time>2012-09-09T19:32:30Z</time>
      </trkpt>
      <trkpt lat="59.9745093" lon="17.7460833">
        <ele>33.3029</ele>
        <time>2012-09-09T19:32:40Z</time>
      </trkpt>
      <trkpt lat="59.9745782" lon="17.7459807">
        <ele>33.7834</ele>
        <time>2012-09-09T19:32:45Z</time>
      </trkpt>
      <trkpt lat="59.9746293" lon="17.7458969">
        <ele>32.8223</ele>
        <time>2012-09-09T19:32:49Z</time>
      </trkpt>
      <trkpt lat="59.9747147" lon="17.7457132">
        <ele>32.3416</ele>
        <time>2012-09-09T19:32:57Z</time>
      </trkpt>
      <trkpt lat="59.9747968" lon="17.7455674">
        <ele>33.3029</ele>
        <time>2012-09-09T19:33:04Z</time>
      </trkpt>
      <trkpt lat="59.9748962" lon="17.7453304">
        <ele>33.3029</ele>
        <time>2012-09-09T19:33:14Z</time>
      </trkpt>
      <trkpt lat="59.9749696" lon="17.7451378">
        <ele>32.3416</ele>
        <time>2012-09-09T19:33:22Z</time>
      </trkpt>
      <trkpt lat="59.9750453" lon="17.7448999">
        <ele>31.8607</ele>
        <time>2012-09-09T19:33:31Z</time>
      </trkpt>
      <trkpt lat="59.9751124" lon="17.744682">
        <ele>30.8995</ele>
        <time>2012-09-09T19:33:39Z</time>
      </trkpt>
      <trkpt lat="59.9752042" lon="17.7443529">
        <ele>31.8607</ele>
        <time>2012-09-09T19:33:50Z</time>
      </trkpt>
      <trkpt lat="59.975259" lon="17.7441507">
        <ele>32.3416</ele>
        <time>2012-09-09T19:33:57Z</time>
      </trkpt>
      <trkpt lat="59.9753007" lon="17.7439222">
        <ele>32.3416</ele>
        <time>2012-09-09T19:34:05Z</time>
      </trkpt>
      <trkpt lat="59.9753436" lon="17.7436128">
        <ele>31.3801</ele>
        <time>2012-09-09T19:34:16Z</time>
      </trkpt>
      <trkpt lat="59.9754049" lon="17.7433003">
        <ele>30.8995</ele>
        <time>2012-09-09T19:34:26Z</time>
      </trkpt>
      <trkpt lat="59.9754759" lon="17.7429995">
        <ele>29.9381</ele>
        <time>2012-09-09T19:34:36Z</time>
      </trkpt>
      <trkpt lat="59.9755504" lon="17.7426934">
        <ele>28.9769</ele>
        <time>2012-09-09T19:34:47Z</time>
      </trkpt>
      <trkpt lat="59.9756183" lon="17.7424295">
        <ele>27.0543</ele>
        <time>2012-09-09T19:34:57Z</time>
      </trkpt>
      <trkpt lat="59.9756819" lon="17.7421788">
        <ele>26.0929</ele>
        <time>2012-09-09T19:35:06Z</time>
      </trkpt>
      <trkpt lat="59.9757494" lon="17.7419185">
        <ele>26.5736</ele>
        <time>2012-09-09T19:35:15Z</time>
      </trkpt>
      <trkpt lat="59.9758082" lon="17.7416707">
        <ele>26.0929</ele>
        <time>2012-09-09T19:35:24Z</time>
      </trkpt>
      <trkpt lat="59.9758695" lon="17.7414248">
        <ele>27.0543</ele>
        <time>2012-09-09T19:35:33Z</time>
      </trkpt>
      <trkpt lat="59.9759338" lon="17.741177">
        <ele>27.0543</ele>
        <time>2012-09-09T19:35:42Z</time>
      </trkpt>
      <trkpt lat="59.976015" lon="17.7408737">
        <ele>28.0155</ele>
        <time>2012-09-09T19:35:53Z</time>
      </trkpt>
      <trkpt lat="59.9760886" lon="17.7406336">
        <ele>28.0155</ele>
        <time>2012-09-09T19:36:02Z</time>
      </trkpt>
      <trkpt lat="59.9761637" lon="17.7404136">
        <ele>27.5349</ele>
        <time>2012-09-09T19:36:11Z</time>
      </trkpt>
      <trkpt lat="59.9762513" lon="17.740153">
        <ele>28.4962</ele>
        <time>2012-09-09T19:36:21Z</time>
      </trkpt>
      <trkpt lat="59.9763284" lon="17.7399329">
        <ele>28.9769</ele>
        <time>2012-09-09T19:36:30Z</time>
      </trkpt>
      <trkpt lat="59.9764117" lon="17.7397273">
        <ele>28.4962</ele>
        <time>2012-09-09T19:36:39Z</time>
      </trkpt>
      <trkpt lat="59.9765034" lon="17.7395827">
        <ele>28.4962</ele>
        <time>2012-09-09T19:36:47Z</time>
      </trkpt>
      <trkpt lat="59.9765942" lon="17.7394972">
        <ele>29.9381</ele>
        <time>2012-09-09T19:36:54Z</time>
      </trkpt>
      <trkpt lat="59.9767019" lon="17.7394046">
        <ele>30.4188</ele>
        <time>2012-09-09T19:37:02Z</time>
      </trkpt>
      <trkpt lat="59.9767965" lon="17.7393439">
        <ele>29.4575</ele>
        <time>2012-09-09T19:37:09Z</time>
      </trkpt>
      <trkpt lat="59.9768082" lon="17.739337">
        <ele>29.4575</ele>
        <time>2012-09-09T19:37:10Z</time>
      </trkpt>
      <trkpt lat="59.9768511" lon="17.7392994">
        <ele>28.4962</ele>
        <time>2012-09-09T19:37:14Z</time>
      </trkpt>
      <trkpt lat="59.9769586" lon="17.7392506">
        <ele>27.5349</ele>
        <time>2012-09-09T19:37:21Z</time>
      </trkpt>
      <trkpt lat="59.9770719" lon="17.7391942">
        <ele>28.4962</ele>
        <time>2012-09-09T19:37:28Z</time>
      </trkpt>
      <trkpt lat="59.9772112" lon="17.7390958">
        <ele>27.5349</ele>
        <time>2012-09-09T19:37:38Z</time>
      </trkpt>
      <trkpt lat="59.9773194" lon="17.739028">
        <ele>27.5349</ele>
        <time>2012-09-09T19:37:46Z</time>
      </trkpt>
      <trkpt lat="59.9774186" lon="17.7389659">
        <ele>26.5736</ele>
        <time>2012-09-09T19:37:53Z</time>
      </trkpt>
      <trkpt lat="59.9775227" lon="17.7389425">
        <ele>28.4962</ele>
        <time>2012-09-09T19:38:00Z</time>
      </trkpt>
      <trkpt lat="59.9776043" lon="17.7389398">
        <ele>28.9769</ele>
        <time>2012-09-09T19:38:05Z</time>
      </trkpt>
      <trkpt lat="59.9777503" lon="17.7389767">
        <ele>33.3029</ele>
        <time>2012-09-09T19:38:13Z</time>
      </trkpt>
      <trkpt lat="59.9778714" lon="17.7390159">
        <ele>36.6675</ele>
        <time>2012-09-09T19:38:20Z</time>
      </trkpt>
      <trkpt lat="59.9779591" lon="17.7390518">
        <ele>37.6287</ele>
        <time>2012-09-09T19:38:26Z</time>
      </trkpt>
      <trkpt lat="59.9780348" lon="17.7390927">
        <ele>38.5901</ele>
        <time>2012-09-09T19:38:31Z</time>
      </trkpt>
      <trkpt lat="59.9781788" lon="17.7391799">
        <ele>38.1094</ele>
        <time>2012-09-09T19:38:40Z</time>
      </trkpt>
      <trkpt lat="59.9782507" lon="17.7391949">
        <ele>35.2255</ele>
        <time>2012-09-09T19:38:46Z</time>
      </trkpt>
      <trkpt lat="59.9783524" lon="17.739227">
        <ele>34.2642</ele>
        <time>2012-09-09T19:38:53Z</time>
      </trkpt>
      <trkpt lat="59.9784177" lon="17.7392348">
        <ele>30.4188</ele>
        <time>2012-09-09T19:38:58Z</time>
      </trkpt>
      <trkpt lat="59.9784686" lon="17.7392589">
        <ele>27.0543</ele>
        <time>2012-09-09T19:39:02Z</time>
      </trkpt>
      <trkpt lat="59.9785875" lon="17.7392728">
        <ele>22.2476</ele>
        <time>2012-09-09T19:39:10Z</time>
      </trkpt>
      <trkpt lat="59.9786771" lon="17.7392888">
        <ele>21.767</ele>
        <time>2012-09-09T19:39:16Z</time>
      </trkpt>
      <trkpt lat="59.9787035" lon="17.7392885">
        <ele>21.2864</ele>
        <time>2012-09-09T19:39:18Z</time>
      </trkpt>
      <trkpt lat="59.9787759" lon="17.7393476">
        <ele>20.325</ele>
        <time>2012-09-09T19:39:24Z</time>
      </trkpt>
      <trkpt lat="59.9788165" lon="17.7393475">
        <ele>22.7283</ele>
        <time>2012-09-09T19:39:26Z</time>
      </trkpt>
      <trkpt lat="59.9788281" lon="17.7393739">
        <ele>22.2476</ele>
        <time>2012-09-09T19:39:28Z</time>
      </trkpt>
      <trkpt lat="59.9788682" lon="17.7393919">
        <ele>23.6896</ele>
        <time>2012-09-09T19:39:33Z</time>
      </trkpt>
      <trkpt lat="59.9788644" lon="17.7394916">
        <ele>27.5349</ele>
        <time>2012-09-09T19:39:37Z</time>
      </trkpt>
      <trkpt lat="59.9788618" lon="17.7395185">
        <ele>28.0155</ele>
        <time>2012-09-09T19:39:38Z</time>
      </trkpt>
      <trkpt lat="59.9788124" lon="17.7396537">
        <ele>30.8995</ele>
        <time>2012-09-09T19:39:45Z</time>
      </trkpt>
      <trkpt lat="59.9788043" lon="17.7398287">
        <ele>34.2642</ele>
        <time>2012-09-09T19:39:51Z</time>
      </trkpt>
      <trkpt lat="59.9788387" lon="17.739922">
        <ele>36.1868</ele>
        <time>2012-09-09T19:39:56Z</time>
      </trkpt>
    </trkseg>
  </trk>
</gpx>